Griffith, Indiana
Current Conditions -  °F | °C
As of 12:35 AM on Thursday 27 Nov 2014 (Local Time) from KIGQ Reporting Station
Overcast Overcast  
Wind Chill: 24°   Ceiling: 2300
Heat Index: 29°   Visibility: 10mi
Dew Point: 24°   Wind: 5mph
Humidity: 82%   Direction: 300°WNW
Pressure: 30.19"   Gusts: NA
Location:  41.52°N, 87.43°W
Report Text: KIGQ 270635Z AUTO 30004KT 10SM OVC023 M02/M04 A3019 RMK AO2 T10181045
Loading
Personal Weather Stations






























Interactive Weather Map New forecast layout! Learn more

10-Day Weather Forecast

Advertisements
Track Severe Weather on mobile